Time;durP1;ratioP1;P1;durP2;ratioP2;P2;SDS_P1;SDS_P2;PMS_P1;PMS_P2;Temp;Humidity;BMP_temperature;BMP_pressure;BME280_temperature;BME280_humidity;BME280_pressure;Samples;Min_cycle;Max_cycle;Signal;HPM_P1;HPM_P2
2023/10/06 00:02:19;;;;;;;5.85;2.70;;;18.30;62.50;19.90;102277.00;;;;4947900;28;20302;-79
2023/10/06 00:04:46;;;;;;;4.00;2.45;;;18.30;62.60;19.90;102275.00;;;;4949283;28;20677;-79
2023/10/06 00:07:14;;;;;;;5.63;3.08;;;18.20;62.60;19.90;102280.00;;;;4937626;28;20207;-79
2023/10/06 00:09:44;;;;;;;7.22;2.75;;;18.30;62.70;19.80;102276.00;;;;4930990;28;20206;-79
2023/10/06 00:12:13;;;;;;;5.25;3.08;;;18.20;62.70;19.80;102264.00;;;;4933016;28;21238;-79
2023/10/06 00:14:43;;;;;;;3.78;2.70;;;18.20;62.70;19.80;102264.00;;;;4946233;28;20281;-79
2023/10/06 00:17:17;;;;;;;4.80;2.00;;;18.20;63.40;19.80;102264.00;;;;4955750;28;20265;-79
2023/10/06 00:19:45;;;;;;;4.65;2.65;;;18.20;62.80;19.80;102266.00;;;;4948144;28;20256;-79
2023/10/06 00:22:18;;;;;;;4.70;2.45;;;18.10;62.70;19.80;102258.00;;;;4949227;28;20226;-79
2023/10/06 00:24:50;;;;;;;4.60;2.35;;;18.20;62.90;19.70;102258.00;;;;4942911;28;20199;-79
2023/10/06 00:27:23;;;;;;;5.60;2.20;;;18.20;62.90;19.80;102253.00;;;;4950006;28;20211;-79
2023/10/06 00:29:54;;;;;;;4.97;3.20;;;18.20;62.90;19.70;102254.00;;;;4945327;28;20204;-79
2023/10/06 00:32:26;;;;;;;5.63;2.90;;;18.20;63.10;19.70;102252.00;;;;4952229;28;20697;-79
2023/10/06 00:34:55;;;;;;;4.22;2.67;;;18.10;63.10;19.70;102261.00;;;;4951183;28;20626;-79
2023/10/06 00:37:23;;;;;;;5.53;2.85;;;18.10;63.10;19.70;102262.00;;;;4945611;28;20199;-80
2023/10/06 00:39:54;;;;;;;3.30;2.33;;;18.10;63.20;19.70;102258.00;;;;4948066;28;20240;-79
2023/10/06 00:42:22;;;;;;;4.82;2.60;;;18.10;63.10;19.70;102255.00;;;;4945398;28;20230;-79
2023/10/06 00:44:49;;;;;;;4.68;2.38;;;18.10;63.20;19.70;102252.00;;;;4946783;29;20623;-79
2023/10/06 00:47:17;;;;;;;4.05;2.70;;;18.10;63.20;19.70;102251.00;;;;4947432;28;20199;-79
2023/10/06 00:49:44;;;;;;;8.02;2.85;;;18.10;63.20;19.70;102246.00;;;;4991118;28;20696;-79
2023/10/06 00:52:15;;;;;;;5.72;2.70;;;18.10;63.30;19.70;102254.00;;;;4947513;28;20575;-79
2023/10/06 00:54:44;;;;;;;5.15;2.90;;;18.10;63.30;19.70;102252.00;;;;4946699;28;20696;-79
2023/10/06 00:57:18;;;;;;;5.30;2.60;;;18.10;63.30;19.70;102259.00;;;;4948672;28;20199;-79
2023/10/06 00:59:46;;;;;;;4.55;2.88;;;18.00;63.30;19.70;102255.00;;;;4946286;28;20330;-79
2023/10/06 01:02:20;;;;;;;5.57;3.20;;;18.10;63.40;19.70;102248.00;;;;5101785;27;1223921;-79
2023/10/06 01:04:52;;;;;;;4.55;2.30;;;18.10;63.40;19.70;102252.00;;;;5118709;28;20201;-79
2023/10/06 01:07:24;;;;;;;6.28;3.00;;;18.00;63.40;19.70;102252.00;;;;5122084;28;20362;-79
2023/10/06 01:09:57;;;;;;;5.90;2.65;;;18.00;63.40;19.60;102240.00;;;;5123855;28;20193;-79
2023/10/06 01:12:26;;;;;;;4.60;2.58;;;18.10;63.50;19.70;102239.00;;;;5105787;28;20209;-80
2023/10/06 01:15:05;;;;;;;7.63;2.63;;;18.00;63.40;19.70;102249.00;;;;5106619;28;20587;-80
2023/10/06 01:17:34;;;;;;;4.28;2.33;;;18.00;63.50;19.60;102232.00;;;;5105375;28;20197;-80
2023/10/06 01:20:03;;;;;;;6.13;2.50;;;18.00;63.50;19.70;102219.00;;;;5106570;28;20242;-80
2023/10/06 01:22:41;;;;;;;7.53;2.75;;;18.00;63.50;19.60;102216.00;;;;5104962;28;20239;-79
2023/10/06 01:25:19;;;;;;;5.75;2.95;;;18.00;63.50;19.60;102205.00;;;;5115609;28;20212;-80
2023/10/06 01:27:46;;;;;;;4.13;2.83;;;18.00;63.50;19.60;102214.00;;;;5121899;28;20200;-79
2023/10/06 01:30:19;;;;;;;4.60;2.35;;;18.00;63.50;19.60;102211.00;;;;5107958;28;20254;-80
2023/10/06 01:32:50;;;;;;;4.38;2.38;;;18.00;63.50;19.60;102203.00;;;;5103875;28;21014;-80
2023/10/06 01:35:23;;;;;;;5.68;2.28;;;18.00;63.50;19.60;102197.00;;;;5093862;28;20199;-80
2023/10/06 01:37:51;;;;;;;6.55;2.35;;;18.00;63.50;19.60;102199.00;;;;5084311;28;20190;-80
2023/10/06 01:40:43;;;;;;;7.03;2.58;;;18.00;63.50;19.60;102200.00;;;;5092107;28;20198;-80
2023/10/06 01:43:10;;;;;;;6.60;2.80;;;18.00;63.50;19.60;102205.00;;;;5099373;28;20197;-80
2023/10/06 01:45:43;;;;;;;4.38;2.60;;;18.00;63.50;19.60;102204.00;;;;5086757;28;20194;-80
2023/10/06 01:48:23;;;;;;;2.72;2.28;;;18.00;63.50;19.60;102211.00;;;;5090867;28;20204;-80
2023/10/06 01:50:50;;;;;;;3.70;2.85;;;18.00;63.60;19.60;102214.00;;;;5086585;28;20202;-79
2023/10/06 01:53:19;;;;;;;5.70;3.20;;;18.00;63.50;19.60;102217.00;;;;5085139;28;20208;-79
2023/10/06 01:55:49;;;;;;;4.35;2.38;;;18.00;63.60;19.60;102212.00;;;;5097346;28;20274;-79
2023/10/06 01:58:16;;;;;;;4.55;2.42;;;18.00;63.70;19.50;102216.00;;;;5091022;28;20194;-79
2023/10/06 02:00:48;;;;;;;6.20;2.65;;;17.90;63.60;19.50;102227.00;;;;5100317;28;20244;-80
2023/10/06 02:03:17;;;;;;;4.75;3.00;;;17.90;63.60;19.50;102235.00;;;;5102470;28;20285;-80
2023/10/06 02:05:44;;;;;;;5.47;2.97;;;17.90;63.60;19.50;102238.00;;;;5092197;28;20679;-79
2023/10/06 02:08:14;;;;;;;5.75;3.30;;;17.90;63.70;19.50;102242.00;;;;5084616;28;20194;-79
2023/10/06 02:10:47;;;;;;;5.55;2.92;;;17.90;63.70;19.50;102241.00;;;;5101346;28;20201;-80
2023/10/06 02:13:19;;;;;;;5.05;2.60;;;17.90;63.70;19.50;102242.00;;;;5091963;28;20190;-80
2023/10/06 02:15:46;;;;;;;3.60;2.33;;;17.90;63.80;19.50;102248.00;;;;5078203;28;20197;-80
2023/10/06 02:18:13;;;;;;;4.78;3.03;;;17.90;63.80;19.50;102248.00;;;;5080999;28;20201;-79
2023/10/06 02:20:45;;;;;;;3.58;2.25;;;17.90;63.90;19.40;102241.00;;;;5070361;28;20223;-80
2023/10/06 02:23:14;;;;;;;7.10;2.90;;;17.90;63.90;19.50;102225.00;;;;5084313;28;20206;-80
2023/10/06 02:25:41;;;;;;;6.57;3.13;;;17.90;63.90;19.40;102227.00;;;;5075136;28;20636;-80
2023/10/06 02:28:10;;;;;;;7.05;3.17;;;17.90;63.90;19.40;102220.00;;;;5080559;28;20941;-80
2023/10/06 02:30:39;;;;;;;6.53;2.63;;;17.80;63.90;19.40;102212.00;;;;5087746;28;20198;-80
2023/10/06 02:33:06;;;;;;;4.88;3.00;;;17.80;63.90;19.40;102217.00;;;;5070816;28;20199;-80
2023/10/06 02:35:35;;;;;;;4.70;2.97;;;17.80;63.90;19.40;102207.00;;;;5074776;28;20213;-80
2023/10/06 02:38:05;;;;;;;6.68;2.72;;;17.80;64.00;19.40;102210.00;;;;5072806;28;20202;-78
2023/10/06 02:40:44;;;;;;;4.32;2.67;;;17.80;64.00;19.40;102212.00;;;;5071083;28;20233;-77
2023/10/06 02:43:16;;;;;;;5.82;2.75;;;17.80;64.00;19.40;102204.00;;;;5070993;28;20191;-77
2023/10/06 02:45:43;;;;;;;4.40;2.53;;;17.80;64.00;19.40;102212.00;;;;5074593;28;20222;-79
2023/10/06 02:48:18;;;;;;;5.85;3.33;;;17.80;64.00;19.40;102210.00;;;;5078196;28;20191;-78
2023/10/06 02:50:50;;;;;;;8.32;3.50;;;17.80;64.00;19.40;102206.00;;;;5082341;28;20204;-77
2023/10/06 02:53:20;;;;;;;5.30;3.05;;;17.80;64.00;19.40;102202.00;;;;5090216;28;20190;-78
2023/10/06 02:55:55;;;;;;;5.75;2.53;;;17.80;64.00;19.40;102202.00;;;;5074805;28;20322;-78
2023/10/06 02:58:27;;;;;;;7.75;3.25;;;17.80;64.00;19.30;102187.00;;;;5087793;28;20975;-77
2023/10/06 03:00:55;;;;;;;5.55;3.63;;;17.80;64.10;19.30;102186.00;;;;5086912;28;20238;-78
2023/10/06 03:03:27;;;;;;;5.05;3.10;;;17.80;64.00;19.30;102184.00;;;;5089227;28;20202;-77
2023/10/06 03:05:55;;;;;;;5.32;3.35;;;17.80;64.10;19.30;102189.00;;;;5074702;28;20194;-78
2023/10/06 03:08:27;;;;;;;8.00;3.60;;;17.70;64.10;19.30;102189.00;;;;5069535;28;20981;-78
2023/10/06 03:10:54;;;;;;;7.00;3.30;;;17.70;64.10;19.30;102178.00;;;;5069261;28;20294;-77
2023/10/06 03:13:32;;;;;;;5.20;3.10;;;17.70;64.10;19.30;102182.00;;;;5072352;28;20275;-77
2023/10/06 03:15:59;;;;;;;6.25;3.00;;;17.70;64.10;19.30;102165.00;;;;5069044;28;20191;-78
2023/10/06 03:18:27;;;;;;;4.75;3.20;;;17.70;64.10;19.30;102166.00;;;;5069344;28;20194;-78
2023/10/06 03:21:00;;;;;;;8.07;3.20;;;17.70;64.20;19.30;102168.00;;;;5078116;28;20190;-78
2023/10/06 03:23:32;;;;;;;7.18;3.00;;;17.70;64.20;19.30;102165.00;;;;5077925;28;20322;-78
2023/10/06 03:26:03;;;;;;;5.72;2.97;;;17.70;64.20;19.30;102163.00;;;;5074500;28;20206;-78
2023/10/06 03:28:36;;;;;;;4.55;3.28;;;17.70;64.30;19.30;102159.00;;;;5069178;28;20202;-77
2023/10/06 03:31:21;;;;;;;5.13;3.00;;;17.70;64.30;19.30;102162.00;;;;5069027;28;20230;-78
2023/10/06 03:33:50;;;;;;;5.35;3.30;;;17.60;64.20;19.20;102157.00;;;;5068930;28;20203;-78
2023/10/06 03:36:25;;;;;;;6.13;2.55;;;17.70;64.20;19.20;102158.00;;;;5077592;28;20202;-78
2023/10/06 03:38:55;;;;;;;5.95;3.38;;;17.70;64.20;19.20;102159.00;;;;5085500;28;21016;-78
2023/10/06 03:41:26;;;;;;;5.93;3.03;;;17.70;64.30;19.20;102164.00;;;;5069107;28;20249;-78
2023/10/06 03:43:55;;;;;;;6.57;2.88;;;17.60;64.30;19.20;102163.00;;;;5079281;28;20191;-78
2023/10/06 03:46:24;;;;;;;5.45;2.70;;;17.60;64.40;19.20;102163.00;;;;5068661;28;20244;-78
2023/10/06 03:48:53;;;;;;;4.03;2.60;;;17.60;64.40;19.20;102163.00;;;;5084633;28;20198;-78
2023/10/06 03:51:21;;;;;;;6.00;2.28;;;17.60;64.40;19.20;102168.00;;;;5088672;28;20248;-78
2023/10/06 03:53:49;;;;;;;4.18;2.85;;;17.60;64.40;19.20;102156.00;;;;5077373;28;20276;-78
2023/10/06 03:56:17;;;;;;;5.35;2.75;;;17.60;64.40;19.20;102157.00;;;;5070903;28;20677;-78
2023/10/06 03:58:45;;;;;;;4.30;3.08;;;17.60;64.40;19.20;102157.00;;;;5079398;28;20206;-78
2023/10/06 04:01:20;;;;;;;6.63;3.08;;;17.60;64.40;19.20;102151.00;;;;5088910;28;20230;-78
2023/10/06 04:03:47;;;;;;;5.82;2.78;;;17.60;64.50;19.20;102151.00;;;;5071606;28;20205;-78
2023/10/06 04:06:15;;;;;;;9.85;3.17;;;17.60;64.50;19.20;102158.00;;;;5069436;28;20237;-78
2023/10/06 04:08:45;;;;;;;5.13;2.75;;;17.60;64.50;19.20;102150.00;;;;5068636;28;20656;-78
2023/10/06 04:11:14;;;;;;;4.07;2.78;;;17.60;64.60;19.20;102158.00;;;;5068597;28;20198;-77
2023/10/06 04:13:41;;;;;;;4.22;2.33;;;17.50;64.50;19.20;102147.00;;;;5072522;28;20209;-79
2023/10/06 04:16:08;;;;;;;5.22;2.55;;;17.50;64.50;19.10;102146.00;;;;5068261;28;20209;-79
2023/10/06 04:18:37;;;;;;;5.85;2.80;;;17.50;64.50;19.10;102146.00;;;;5078697;28;20205;-79
2023/10/06 04:21:04;;;;;;;7.22;2.80;;;17.50;64.50;19.10;102144.00;;;;5075389;28;20265;-78
2023/10/06 04:23:31;;;;;;;4.85;2.60;;;17.50;64.50;19.10;102144.00;;;;5083927;28;20747;-78
2023/10/06 04:25:58;;;;;;;6.82;2.70;;;17.50;64.50;19.10;102139.00;;;;5071354;28;20285;-79
2023/10/06 04:28:27;;;;;;;5.07;3.03;;;17.60;64.70;19.10;102138.00;;;;5077772;28;20195;-78
2023/10/06 04:30:57;;;;;;;6.47;2.63;;;17.50;64.60;19.10;102131.00;;;;5076043;28;20590;-79
2023/10/06 04:33:25;;;;;;;5.82;2.83;;;17.50;64.60;19.10;102134.00;;;;5068320;28;20195;-78
2023/10/06 04:35:55;;;;;;;5.25;2.25;;;17.50;64.70;19.10;102135.00;;;;5073799;28;20206;-78
2023/10/06 04:38:23;;;;;;;4.30;2.63;;;17.50;64.70;19.10;102133.00;;;;5069648;28;20285;-78
2023/10/06 04:40:51;;;;;;;3.67;2.67;;;17.50;64.70;19.10;102130.00;;;;5079787;28;20195;-78
2023/10/06 04:43:18;;;;;;;4.28;2.38;;;17.50;64.70;19.10;102129.00;;;;5087589;28;20236;-78
2023/10/06 04:45:47;;;;;;;3.90;2.47;;;17.50;64.80;19.10;102130.00;;;;5079803;28;20198;-79
2023/10/06 04:48:15;;;;;;;4.50;2.60;;;17.50;64.80;19.10;102145.00;;;;5083371;28;20194;-78
2023/10/06 04:50:43;;;;;;;4.65;2.38;;;17.50;64.80;19.10;102137.00;;;;5072237;28;20397;-79
2023/10/06 04:53:12;;;;;;;6.43;2.67;;;17.50;64.80;19.10;102144.00;;;;5067838;28;20210;-78
2023/10/06 04:55:39;;;;;;;3.63;2.33;;;17.60;64.90;19.10;102153.00;;;;5075272;28;20655;-78
2023/10/06 04:58:09;;;;;;;3.47;2.13;;;17.50;64.80;19.10;102141.00;;;;5075924;28;20660;-78
2023/10/06 05:00:37;;;;;;;6.60;2.50;;;17.50;64.80;19.10;102140.00;;;;5069812;28;20191;-78
2023/10/06 05:03:06;;;;;;;4.72;2.70;;;17.60;64.90;19.10;102142.00;;;;5081062;28;20198;-79
2023/10/06 05:05:37;;;;;;;3.80;2.47;;;17.60;64.90;19.10;102139.00;;;;5071669;28;20209;-78
2023/10/06 05:08:09;;;;;;;5.10;2.90;;;17.60;64.90;19.10;102128.00;;;;5067395;28;20623;-79
2023/10/06 05:10:39;;;;;;;8.30;2.33;;;17.60;64.90;19.10;102121.00;;;;5067593;28;20203;-79
2023/10/06 05:13:07;;;;;;;5.25;3.08;;;17.60;64.90;19.20;102130.00;;;;5080599;28;20194;-79
2023/10/06 05:15:34;;;;;;;14.40;2.97;;;17.60;64.90;19.20;102132.00;;;;5076806;28;20202;-78
2023/10/06 05:18:03;;;;;;;5.63;2.63;;;17.60;64.80;19.20;102131.00;;;;5071966;28;20209;-79
2023/10/06 05:20:32;;;;;;;3.92;2.58;;;17.60;64.80;19.20;102127.00;;;;5068190;28;20206;-78
2023/10/06 05:23:02;;;;;;;7.30;3.15;;;17.60;64.80;19.20;102117.00;;;;5074681;28;20252;-79
2023/10/06 05:25:29;;;;;;;4.63;2.83;;;17.60;65.40;19.20;102113.00;;;;5086098;28;20202;-79
2023/10/06 05:27:59;;;;;;;5.35;3.05;;;17.60;64.70;19.20;102118.00;;;;5075436;28;20284;-78
2023/10/06 05:30:27;;;;;;;3.70;2.38;;;17.60;64.70;19.20;102118.00;;;;5069883;28;20195;-78
2023/10/06 05:32:57;;;;;;;5.68;3.15;;;17.60;65.40;19.20;102110.00;;;;5066857;28;20656;-78
2023/10/06 05:35:25;;;;;;;6.22;2.97;;;17.60;64.70;19.10;102118.00;;;;5070158;28;20199;-79
2023/10/06 05:37:53;;;;;;;5.75;3.50;;;17.60;64.60;19.20;102111.00;;;;5069807;28;20220;-78
2023/10/06 05:40:21;;;;;;;6.50;3.22;;;17.60;64.70;19.20;102117.00;;;;5064656;28;20198;-78
2023/10/06 05:42:49;;;;;;;3.97;2.78;;;17.60;64.60;19.20;102119.00;;;;5080879;28;20226;-78
2023/10/06 05:45:20;;;;;;;8.98;3.53;;;17.60;64.50;19.10;102128.00;;;;5080224;28;20252;-79
2023/10/06 05:47:50;;;;;;;5.18;2.97;;;17.60;64.60;19.10;102129.00;;;;5070656;28;21075;-77
2023/10/06 05:50:27;;;;;;;5.85;2.80;;;17.60;64.50;19.20;102120.00;;;;5072130;28;20203;-77
2023/10/06 05:52:58;;;;;;;4.57;2.75;;;17.60;64.50;19.10;102120.00;;;;5073281;28;20667;-77
2023/10/06 05:55:30;;;;;;;4.55;3.33;;;17.60;64.40;19.10;102128.00;;;;5070732;28;20198;-77
2023/10/06 05:58:00;;;;;;;3.65;2.80;;;17.60;64.40;19.20;102133.00;;;;5081896;28;20206;-77
2023/10/06 06:00:30;;;;;;;4.65;3.08;;;17.60;64.40;19.20;102129.00;;;;5083444;28;20187;-78
2023/10/06 06:03:10;;;;;;;4.78;3.20;;;17.60;64.40;19.20;102130.00;;;;5077625;28;20260;-76
2023/10/06 06:05:38;;;;;;;7.00;3.17;;;17.60;64.40;19.20;102133.00;;;;5068512;28;20198;-76
2023/10/06 06:08:08;;;;;;;5.25;3.38;;;17.60;64.40;19.20;102149.00;;;;5070391;28;20207;-76
2023/10/06 06:10:35;;;;;;;5.22;3.30;;;17.60;64.40;19.20;102143.00;;;;5087085;28;20191;-76
2023/10/06 06:13:04;;;;;;;5.22;3.60;;;17.60;64.40;19.20;102145.00;;;;5074335;28;20195;-77
2023/10/06 06:15:32;;;;;;;5.15;3.53;;;17.60;64.40;19.20;102142.00;;;;5070452;28;20201;-76
2023/10/06 06:18:00;;;;;;;6.13;2.95;;;17.60;64.30;19.20;102139.00;;;;5076489;28;20198;-76
2023/10/06 06:20:29;;;;;;;7.68;3.28;;;17.60;65.00;19.20;102138.00;;;;5069492;28;20195;-76
2023/10/06 06:22:58;;;;;;;5.57;3.45;;;17.60;64.30;19.20;102139.00;;;;5069631;28;20227;-76
2023/10/06 06:25:27;;;;;;;5.28;3.45;;;17.60;64.20;19.30;102136.00;;;;5078371;28;20241;-76
2023/10/06 06:27:59;;;;;;;7.88;3.67;;;17.70;64.30;19.30;102144.00;;;;5074126;28;20203;-76
2023/10/06 06:30:26;;;;;;;3.67;2.95;;;17.70;64.40;19.30;102138.00;;;;5078635;28;20203;-76
2023/10/06 06:32:55;;;;;;;5.70;3.30;;;17.70;64.20;19.30;102146.00;;;;5080413;28;20307;-76
2023/10/06 06:35:25;;;;;;;8.18;4.15;;;17.70;64.30;19.30;102135.00;;;;5072938;28;20199;-76
2023/10/06 06:37:59;;;;;;;5.00;3.67;;;17.70;64.20;19.30;102135.00;;;;5071733;28;20583;-76
2023/10/06 06:40:28;;;;;;;6.70;3.20;;;17.70;64.10;19.30;102138.00;;;;5077233;28;20198;-77
2023/10/06 06:42:56;;;;;;;5.60;3.55;;;17.70;64.10;19.30;102136.00;;;;5083800;28;20214;-76
2023/10/06 06:45:24;;;;;;;4.85;3.13;;;17.70;64.00;19.30;102133.00;;;;5080300;28;20206;-77
2023/10/06 06:47:53;;;;;;;5.82;3.13;;;17.70;64.00;19.30;102136.00;;;;5083235;28;20191;-77
2023/10/06 06:50:21;;;;;;;5.68;3.65;;;17.70;64.00;19.30;102132.00;;;;5077321;28;20194;-77
2023/10/06 06:52:51;;;;;;;6.57;3.28;;;17.70;64.00;19.30;102133.00;;;;5078559;28;20260;-77
2023/10/06 06:55:20;;;;;;;4.35;3.08;;;17.70;64.00;19.30;102131.00;;;;5078773;28;20240;-77
2023/10/06 06:57:49;;;;;;;3.92;2.83;;;17.70;64.00;19.30;102138.00;;;;5077968;28;21014;-77
2023/10/06 07:00:21;;;;;;;6.65;3.08;;;17.70;64.00;19.30;102135.00;;;;5081928;28;20190;-77
2023/10/06 07:02:51;;;;;;;4.65;2.65;;;17.70;64.40;19.40;102147.00;;;;5079187;28;20601;-76
2023/10/06 07:05:23;;;;;;;7.65;3.33;;;17.80;64.10;19.30;102132.00;;;;5080262;28;20191;-77
2023/10/06 07:07:52;;;;;;;4.70;3.05;;;17.80;64.00;19.40;102142.00;;;;5074775;28;20209;-76
2023/10/06 07:10:22;;;;;;;5.85;2.90;;;17.80;64.00;19.40;102139.00;;;;5080626;28;20199;-77
2023/10/06 07:12:51;;;;;;;3.60;2.40;;;17.80;64.10;19.40;102144.00;;;;5078538;28;20202;-77
2023/10/06 07:15:20;;;;;;;5.70;2.60;;;17.80;64.10;19.40;102146.00;;;;5077313;28;20194;-77
2023/10/06 07:17:50;;;;;;;10.23;3.13;;;17.80;64.10;19.50;102149.00;;;;5076897;28;20190;-77
2023/10/06 07:20:20;;;;;;;6.95;2.58;;;17.90;64.20;19.50;102148.00;;;;5072270;28;20274;-77
2023/10/06 07:22:48;;;;;;;6.15;3.58;;;17.90;64.30;19.60;102148.00;;;;5079195;28;20262;-77
2023/10/06 07:25:16;;;;;;;7.38;3.10;;;17.90;65.00;19.60;102154.00;;;;5078087;28;20195;-76
2023/10/06 07:27:46;;;;;;;4.13;2.60;;;17.90;64.30;19.60;102156.00;;;;5073534;28;20652;-76
2023/10/06 07:30:15;;;;;;;5.47;2.50;;;18.00;64.40;19.70;102144.00;;;;5077121;28;20203;-77
2023/10/06 07:32:43;;;;;;;4.32;2.75;;;18.00;64.30;19.70;102148.00;;;;5069473;28;20233;-76
2023/10/06 07:35:14;;;;;;;4.38;2.80;;;18.10;64.50;19.70;102146.00;;;;5069684;28;20210;-77
2023/10/06 07:37:43;;;;;;;5.53;2.80;;;18.10;64.40;19.80;102150.00;;;;5070204;28;20197;-77
2023/10/06 07:40:14;;;;;;;5.80;2.70;;;18.20;64.50;19.90;102167.00;;;;5069616;28;20619;-78
2023/10/06 07:42:43;;;;;;;5.32;3.08;;;18.20;64.40;19.90;102170.00;;;;5077142;28;20346;-78
2023/10/06 07:45:11;;;;;;;5.55;2.83;;;18.30;64.40;20.00;102166.00;;;;5075624;28;20571;-78
2023/10/06 07:47:40;;;;;;;5.05;2.60;;;18.30;64.30;20.00;102164.00;;;;5076524;28;20205;-78
2023/10/06 07:50:09;;;;;;;9.10;2.70;;;18.40;64.40;20.10;102175.00;;;;5076844;28;20187;-78
2023/10/06 07:52:37;;;;;;;7.95;3.20;;;18.40;64.30;20.10;102173.00;;;;5075852;28;20675;-78
2023/10/06 07:55:09;;;;;;;2.50;2.15;;;18.50;64.40;20.20;102174.00;;;;5072477;28;20205;-78
2023/10/06 07:57:40;;;;;;;5.03;2.03;;;18.50;64.40;20.30;102169.00;;;;5069671;28;20195;-78
2023/10/06 08:00:10;;;;;;;5.30;3.05;;;18.60;64.40;20.40;102170.00;;;;5075708;28;20274;-78
2023/10/06 08:02:39;;;;;;;4.80;2.70;;;18.70;64.50;20.40;102168.00;;;;5069135;28;20241;-77
2023/10/06 08:05:11;;;;;;;5.75;2.53;;;18.80;64.50;20.50;102172.00;;;;5069274;28;20195;-77
2023/10/06 08:07:39;;;;;;;5.80;3.03;;;18.80;64.40;20.60;102172.00;;;;5068636;28;20191;-76
2023/10/06 08:10:13;;;;;;;7.72;2.63;;;18.90;64.40;20.60;102183.00;;;;5068056;28;20599;-77
2023/10/06 08:12:43;;;;;;;4.20;2.53;;;19.00;64.20;20.70;102177.00;;;;5069227;28;20203;-78
2023/10/06 08:15:11;;;;;;;5.18;2.88;;;19.00;64.10;20.80;102171.00;;;;5069538;28;20191;-78
2023/10/06 08:17:39;;;;;;;4.15;2.28;;;19.10;64.20;20.90;102176.00;;;;5077231;28;20266;-78
2023/10/06 08:20:12;;;;;;;6.45;2.63;;;19.20;64.20;20.90;102177.00;;;;5071084;28;20270;-76
2023/10/06 08:22:39;;;;;;;4.60;2.38;;;19.30;64.30;21.00;102177.00;;;;5086033;28;20301;-77
2023/10/06 08:25:09;;;;;;;3.85;2.53;;;19.30;64.20;21.10;102181.00;;;;5080292;28;20199;-79
2023/10/06 08:27:36;;;;;;;6.32;2.90;;;19.40;64.10;21.10;102177.00;;;;5071253;28;20277;-78
2023/10/06 08:30:07;;;;;;;4.43;2.88;;;19.50;64.10;21.20;102187.00;;;;5082873;28;20183;-79
2023/10/06 08:32:34;;;;;;;5.50;2.22;;;19.60;63.90;21.30;102188.00;;;;5069169;28;20222;-78
2023/10/06 08:35:02;;;;;;;3.83;2.65;;;19.60;63.80;21.30;102183.00;;;;5068745;28;20206;-76
2023/10/06 08:37:30;;;;;;;9.90;3.42;;;19.70;63.80;21.40;102180.00;;;;5076993;28;20286;-76
2023/10/06 08:39:57;;;;;;;2.33;2.08;;;19.70;63.70;21.40;102179.00;;;;5072484;28;20201;-79
2023/10/06 08:42:26;;;;;;;4.13;2.70;;;19.80;63.70;21.50;102171.00;;;;5082172;28;20682;-78
2023/10/06 08:44:53;;;;;;;6.35;2.45;;;19.90;63.80;21.50;102179.00;;;;5068693;28;20198;-78
2023/10/06 08:47:22;;;;;;;7.72;2.63;;;19.90;63.70;21.60;102173.00;;;;5069065;28;20641;-78
2023/10/06 08:49:52;;;;;;;4.20;2.53;;;19.90;63.50;21.60;102174.00;;;;5076076;28;20222;-77
2023/10/06 08:52:22;;;;;;;7.82;2.05;;;20.00;63.40;21.60;102162.00;;;;5084703;28;20297;-79
2023/10/06 08:54:49;;;;;;;4.88;2.60;;;20.00;63.20;21.60;102158.00;;;;5068027;28;20731;-77
2023/10/06 08:57:16;;;;;;;5.78;2.55;;;20.10;63.20;21.60;102167.00;;;;5084740;28;20578;-78
2023/10/06 08:59:45;;;;;;;5.20;3.13;;;20.10;63.10;21.70;102167.00;;;;5088490;28;20204;-78
2023/10/06 09:02:12;;;;;;;5.03;2.33;;;20.10;63.10;21.70;102170.00;;;;5077366;28;20232;-78
2023/10/06 09:04:39;;;;;;;4.32;2.40;;;20.20;63.30;21.80;102176.00;;;;5088879;28;20229;-79
2023/10/06 09:07:12;;;;;;;5.20;2.53;;;20.20;63.20;21.80;102172.00;;;;5082666;28;20679;-79
2023/10/06 09:09:40;;;;;;;4.65;2.28;;;20.20;63.20;21.80;102174.00;;;;5075022;28;20198;-79
2023/10/06 09:12:09;;;;;;;6.05;2.67;;;20.30;63.40;21.90;102187.00;;;;5068609;28;20657;-78
2023/10/06 09:14:54;;;;;;;5.82;2.35;;;20.30;63.40;21.80;102173.00;;;;5078945;28;20205;-79
2023/10/06 09:17:31;;;;;;;4.72;2.00;;;20.30;63.30;21.90;102172.00;;;;5086164;28;20260;-79
2023/10/06 09:19:59;;;;;;;5.00;2.60;;;20.40;63.50;22.10;102180.00;;;;5073756;28;20199;-79
2023/10/06 09:22:29;;;;;;;4.10;2.55;;;20.50;63.50;22.10;102186.00;;;;5068495;28;20202;-79
2023/10/06 09:25:02;;;;;;;7.68;2.47;;;20.50;63.30;22.20;102172.00;;;;5072177;28;20209;-80
2023/10/06 09:27:29;;;;;;;7.07;2.65;;;20.60;63.30;22.20;102181.00;;;;5072344;28;20282;-80
2023/10/06 09:30:09;;;;;;;3.60;2.42;;;20.70;63.30;22.20;102180.00;;;;5071992;28;20198;-79
2023/10/06 09:32:39;;;;;;;4.32;2.42;;;20.70;63.00;22.30;102173.00;;;;5075950;28;20563;-79
2023/10/06 09:35:21;;;;;;;6.00;3.03;;;20.70;62.90;22.20;102170.00;;;;5084026;28;20190;-78
2023/10/06 09:37:51;;;;;;;4.72;2.90;;;20.80;62.40;22.30;102172.00;;;;5083325;28;20199;-80
2023/10/06 09:40:22;;;;;;;4.07;2.42;;;20.80;62.60;22.40;102160.00;;;;5070657;28;20195;-79
2023/10/06 09:42:51;;;;;;;5.55;3.25;;;20.80;62.60;22.40;102166.00;;;;5072601;28;20199;-81
2023/10/06 09:45:24;;;;;;;5.68;2.95;;;20.90;62.90;22.40;102161.00;;;;5081526;28;20715;-80
2023/10/06 09:47:56;;;;;;;5.35;2.38;;;20.90;62.90;22.50;102177.00;;;;5081587;28;20194;-79
2023/10/06 09:50:26;;;;;;;5.82;2.88;;;21.00;63.00;22.60;102169.00;;;;5072481;28;20233;-81
2023/10/06 09:52:53;;;;;;;8.02;2.92;;;21.10;62.90;22.70;102162.00;;;;5073429;28;20221;-80
2023/10/06 09:55:22;;;;;;;5.38;2.78;;;21.10;62.90;22.80;102167.00;;;;5071565;28;20709;-80
2023/10/06 09:57:50;;;;;;;4.45;2.67;;;21.20;63.00;22.90;102169.00;;;;5073490;28;20667;-78
2023/10/06 10:00:21;;;;;;;4.72;2.55;;;21.30;63.70;23.00;102166.00;;;;5070525;28;20203;-78
2023/10/06 10:02:50;;;;;;;6.13;2.75;;;21.40;63.00;23.10;102161.00;;;;5078404;28;20231;-79
2023/10/06 10:05:19;;;;;;;9.23;2.70;;;21.50;62.80;23.10;102164.00;;;;5091679;28;20244;-77
2023/10/06 10:07:48;;;;;;;7.05;2.92;;;21.60;62.70;23.20;102153.00;;;;5078825;28;20214;-79
2023/10/06 10:10:22;;;;;;;5.13;2.80;;;21.70;62.60;23.30;102142.00;;;;5076733;28;20205;-78
2023/10/06 10:13:21;;;;;;;7.05;2.33;;;21.70;62.50;23.20;102144.00;;;;5074329;28;20732;-79
2023/10/06 10:16:11;;;;;;;3.67;2.25;;;21.80;62.30;23.30;102145.00;;;;5074439;28;20191;-79
2023/10/06 10:18:41;;;;;;;3.00;2.05;;;21.90;62.30;23.50;102138.00;;;;5072799;28;20199;-79
2023/10/06 10:21:11;;;;;;;9.52;2.72;;;21.90;62.30;23.50;102141.00;;;;5070744;28;20560;-79
2023/10/06 10:23:40;;;;;;;4.68;2.15;;;22.00;62.20;23.60;102158.00;;;;5077696;28;20215;-80
2023/10/06 10:26:22;;;;;;;3.20;1.95;;;22.10;62.00;23.50;102140.00;;;;5077705;28;20289;-80
2023/10/06 10:29:29;;;;;;;4.38;2.25;;;22.10;61.70;23.50;102145.00;;;;5071215;28;20198;-79
2023/10/06 10:32:11;;;;;;;6.55;2.40;;;22.20;61.50;23.60;102140.00;;;;5073267;28;20440;-80
2023/10/06 10:35:13;;;;;;;8.20;2.38;;;22.20;61.60;23.60;102141.00;;;;5070107;28;20203;-80
2023/10/06 10:37:55;;;;;;;7.10;2.20;;;22.30;61.40;23.70;102149.00;;;;5082813;28;20229;-79
2023/10/06 10:40:25;;;;;;;4.10;2.10;;;22.30;61.50;23.80;102153.00;;;;5076719;28;20260;-79
2023/10/06 10:43:01;;;;;;;3.65;2.05;;;22.40;61.70;23.90;102158.00;;;;5078483;28;20190;-78
2023/10/06 10:45:31;;;;;;;5.95;2.35;;;22.40;61.70;24.00;102149.00;;;;5073240;28;20251;-78
2023/10/06 10:48:00;;;;;;;4.55;2.25;;;22.50;61.70;24.10;102148.00;;;;5075550;28;20199;-80
2023/10/06 10:50:59;;;;;;;3.75;2.00;;;22.60;61.80;24.10;102138.00;;;;5079500;28;20198;-78
2023/10/06 10:53:33;;;;;;;5.47;2.78;;;22.60;61.50;24.20;102146.00;;;;5076516;28;20195;-79
2023/10/06 10:56:02;;;;;;;7.95;2.60;;;22.80;61.60;24.30;102131.00;;;;5089970;28;20526;-79
2023/10/06 10:58:54;;;;;;;5.38;2.30;;;22.90;61.40;24.20;102126.00;;;;5089947;28;20260;-80
2023/10/06 11:01:31;;;;;;;14.13;2.65;;;22.90;60.30;24.30;102133.00;;;;5081101;28;20777;-81
2023/10/06 11:04:29;;;;;;;3.80;2.20;;;22.90;60.50;24.30;102135.00;;;;5073900;28;20721;-80